createdAt,value
2023-05-15T00:01:38.874Z,101157.31
2023-05-15T00:04:05.619Z,101155.38
2023-05-15T00:06:32.239Z,101157.22
2023-05-15T00:08:58.735Z,101144.97
2023-05-15T00:11:27.889Z,101143.34
2023-05-15T00:13:54.712Z,101139.81
2023-05-15T00:16:21.263Z,101136.25
2023-05-15T00:18:47.818Z,101136.28
2023-05-15T00:21:14.328Z,101131.81
2023-05-15T00:23:40.784Z,101132.75
2023-05-15T00:26:07.263Z,101131.84
2023-05-15T00:28:33.782Z,101131.06
2023-05-15T00:31:00.330Z,101121.34
2023-05-15T00:33:26.828Z,101116.25
2023-05-15T00:35:53.314Z,101128.22
2023-05-15T00:38:19.774Z,101121.25
2023-05-15T00:40:46.602Z,101117.56
2023-05-15T00:43:13.297Z,101115.06
2023-05-15T00:45:41.419Z,101119.47
2023-05-15T00:48:09.879Z,101115.16
2023-05-15T00:50:36.670Z,101118.09
2023-05-15T00:53:03.552Z,101109.84
2023-05-15T00:55:31.394Z,101111.38
2023-05-15T00:57:58.111Z,101105.31
2023-05-15T01:00:25.148Z,101104.41
2023-05-15T01:02:52.406Z,101104.56
2023-05-15T01:05:19.112Z,101094.16
2023-05-15T01:07:52.831Z,101094.13
2023-05-15T01:10:19.743Z,101095.53
2023-05-15T01:12:47.486Z,101097.94
2023-05-15T01:15:14.025Z,101095.34
2023-05-15T01:17:40.825Z,101087.69
2023-05-15T01:20:10.387Z,101091.81
2023-05-15T01:22:53.188Z,101086.78
2023-05-15T01:25:22.896Z,101079.72
2023-05-15T01:27:51.748Z,101071.91
2023-05-15T01:30:22.726Z,101083.66
2023-05-15T01:33:08.755Z,101087.78
2023-05-15T01:35:39.927Z,101084.50
2023-05-15T01:38:09.511Z,101088.19
2023-05-15T01:40:36.017Z,101092.44
2023-05-15T01:43:08.465Z,101078.78
2023-05-15T01:45:36.025Z,101083.91
2023-05-15T01:48:07.735Z,101084.03
2023-05-15T01:50:36.012Z,101084.63
2023-05-15T01:53:03.229Z,101087.09
2023-05-15T01:55:30.817Z,101085.50
2023-05-15T01:58:00.932Z,101085.47
2023-05-15T02:00:27.477Z,101079.19
2023-05-15T02:02:54.529Z,101079.13
2023-05-15T02:05:22.137Z,101081.22
2023-05-15T02:07:49.305Z,101077.66
2023-05-15T02:10:17.731Z,101071.59
2023-05-15T02:12:44.373Z,101072.44
2023-05-15T02:15:11.823Z,101076.03
2023-05-15T02:17:38.562Z,101072.19
2023-05-15T02:20:08.589Z,101074.56
2023-05-15T02:22:35.064Z,101067.97
2023-05-15T02:25:01.917Z,101063.13
2023-05-15T02:27:33.860Z,101057.72
2023-05-15T02:30:06.616Z,101058.53
2023-05-15T02:32:58.448Z,101058.56
2023-05-15T02:35:31.087Z,101056.81
2023-05-15T02:38:00.989Z,101061.19
2023-05-15T02:40:28.961Z,101062.94
2023-05-15T02:42:57.026Z,101060.06
2023-05-15T02:45:24.398Z,101059.94
2023-05-15T02:47:51.717Z,101062.06
2023-05-15T02:50:18.578Z,101060.25
2023-05-15T02:52:45.036Z,101059.44
2023-05-15T02:55:11.484Z,101055.72
2023-05-15T02:57:38.004Z,101051.44
2023-05-15T03:00:07.507Z,101051.44
2023-05-15T03:02:34.015Z,101052.97
2023-05-15T03:05:00.503Z,101050.47
2023-05-15T03:07:27.271Z,101058.19
2023-05-15T03:09:53.692Z,101052.72
2023-05-15T03:12:20.228Z,101044.22
2023-05-15T03:14:46.701Z,101045.13
2023-05-15T03:17:13.282Z,101049.44
2023-05-15T03:19:39.819Z,101041.78
2023-05-15T03:22:06.324Z,101042.41
2023-05-15T03:24:32.817Z,101030.31
2023-05-15T03:26:59.249Z,101035.44
2023-05-15T03:29:25.828Z,101030.34
2023-05-15T03:31:52.384Z,101035.50
2023-05-15T03:34:18.923Z,101026.91
2023-05-15T03:36:45.601Z,101020.69
2023-05-15T03:39:12.099Z,101030.03
2023-05-15T03:41:38.547Z,101021.72
2023-05-15T03:44:05.168Z,101029.56
2023-05-15T03:46:31.674Z,101018.31
2023-05-15T03:48:58.405Z,101012.19
2023-05-15T03:51:25.068Z,101016.72
2023-05-15T03:53:51.559Z,101014.81
2023-05-15T03:56:18.063Z,101012.91
2023-05-15T03:58:44.612Z,101019.69
2023-05-15T04:01:11.090Z,101016.09
2023-05-15T04:03:37.586Z,101008.59
2023-05-15T04:06:04.363Z,101011.88
2023-05-15T04:08:30.865Z,101018.22
2023-05-15T04:10:57.361Z,101008.91
2023-05-15T04:13:23.840Z,101011.50
2023-05-15T04:15:50.394Z,101003.06
2023-05-15T04:18:16.911Z,100993.41
2023-05-15T04:20:43.355Z,100994.31
2023-05-15T04:23:09.831Z,100989.16
2023-05-15T04:25:36.612Z,100987.44
2023-05-15T04:28:03.183Z,100988.47
2023-05-15T04:30:29.716Z,100992.06
2023-05-15T04:32:56.580Z,100997.38
2023-05-15T04:35:23.319Z,100986.78
2023-05-15T04:37:49.958Z,100992.06
2023-05-15T04:40:16.940Z,100994.66
2023-05-15T04:42:43.630Z,100988.56
2023-05-15T04:45:10.919Z,100989.41
2023-05-15T04:47:37.845Z,100992.91
2023-05-15T04:50:04.629Z,100985.06
2023-05-15T04:52:32.211Z,100983.28
2023-05-15T04:54:58.784Z,100985.13
2023-05-15T04:57:25.819Z,100976.47
2023-05-15T04:59:52.517Z,100973.72
2023-05-15T05:02:22.743Z,100980.88
2023-05-15T05:04:49.829Z,100978.31
2023-05-15T05:07:16.462Z,100980.78
2023-05-15T05:09:43.102Z,100980.16
2023-05-15T05:12:09.970Z,100979.97
2023-05-15T05:14:36.820Z,100974.03
2023-05-15T05:17:03.652Z,100983.56
2023-05-15T05:19:30.183Z,100977.50
2023-05-15T05:21:58.442Z,100968.03
2023-05-15T05:24:25.255Z,100975.84
2023-05-15T05:26:51.719Z,100974.91
2023-05-15T05:29:18.197Z,100971.53
2023-05-15T05:31:46.888Z,100979.41
2023-05-15T05:34:13.603Z,100975.00
2023-05-15T05:36:40.069Z,100976.72
2023-05-15T05:39:06.901Z,100981.81
2023-05-15T05:41:33.428Z,100973.06
2023-05-15T05:43:59.908Z,100966.03
2023-05-15T05:46:27.326Z,100967.66
2023-05-15T05:48:53.880Z,100973.16
2023-05-15T05:51:20.720Z,100973.00
2023-05-15T05:53:47.220Z,100971.72
2023-05-15T05:56:13.845Z,100968.94
2023-05-15T05:58:40.325Z,100977.44
2023-05-15T06:01:07.079Z,100972.94
2023-05-15T06:03:34.317Z,100960.28
2023-05-15T06:06:00.975Z,100967.75
2023-05-15T06:08:29.099Z,100968.94
2023-05-15T06:10:55.665Z,100968.72
2023-05-15T06:13:22.222Z,100959.94
2023-05-15T06:15:48.693Z,100956.13
2023-05-15T06:18:15.227Z,100950.56
2023-05-15T06:20:42.899Z,100948.94
2023-05-15T06:23:09.815Z,100943.63
2023-05-15T06:25:36.530Z,100947.09
2023-05-15T06:28:03.231Z,100942.66
2023-05-15T06:30:29.839Z,100942.00
2023-05-15T06:32:56.297Z,100947.03
2023-05-15T06:35:25.860Z,100949.03
2023-05-15T06:37:53.513Z,100940.50
2023-05-15T06:40:21.155Z,100931.59
2023-05-15T06:42:47.757Z,100931.13
2023-05-15T06:45:14.317Z,100927.28
2023-05-15T06:47:41.263Z,100921.06
2023-05-15T06:50:08.463Z,100928.34
2023-05-15T06:52:36.009Z,100931.34
2023-05-15T06:55:02.707Z,100923.22
2023-05-15T06:57:29.149Z,100925.91
2023-05-15T06:59:57.095Z,100924.63
2023-05-15T07:02:23.541Z,100929.75
2023-05-15T07:04:50.166Z,100920.41
2023-05-15T07:07:16.737Z,100928.66
2023-05-15T07:09:45.719Z,100921.47
2023-05-15T07:12:12.167Z,100921.56
2023-05-15T07:14:38.648Z,100918.13
2023-05-15T07:17:05.161Z,100920.84
2023-05-15T07:19:31.668Z,100912.25
2023-05-15T07:21:58.164Z,100912.94
2023-05-15T07:24:24.670Z,100907.69
2023-05-15T07:29:23.862Z,100892.28
2023-05-15T07:31:50.454Z,100905.31
2023-05-15T07:34:17.007Z,100908.66
2023-05-15T07:36:43.464Z,100900.84
2023-05-15T07:39:10.621Z,100887.28
2023-05-15T07:41:37.295Z,100896.41
2023-05-15T07:44:03.884Z,100883.03
2023-05-15T07:46:30.423Z,100884.94
2023-05-15T07:48:57.004Z,100874.63
2023-05-15T07:51:23.484Z,100878.50
2023-05-15T07:53:50.106Z,100875.75
2023-05-15T07:56:16.605Z,100885.88
2023-05-15T07:58:43.120Z,100879.66
2023-05-15T08:01:09.668Z,100876.44
2023-05-15T08:03:36.367Z,100875.25
2023-05-15T08:06:02.996Z,100874.88
2023-05-15T08:08:29.473Z,100869.13
2023-05-15T08:10:56.036Z,100867.97
2023-05-15T08:13:22.504Z,100867.34
2023-05-15T08:15:49.087Z,100867.34
2023-05-15T08:18:15.700Z,100860.84
2023-05-15T08:20:42.160Z,100852.44
2023-05-15T08:23:08.791Z,100861.41
2023-05-15T08:25:35.310Z,100851.66
2023-05-15T08:28:02.826Z,100849.00
2023-05-15T08:30:29.349Z,100852.97
2023-05-15T08:32:55.858Z,100848.16
2023-05-15T08:35:22.432Z,100851.78
2023-05-15T08:37:48.915Z,100844.75
2023-05-15T08:40:15.622Z,100846.00
2023-05-15T08:42:50.595Z,100839.56
2023-05-15T08:45:17.201Z,100841.06
2023-05-15T08:47:44.210Z,100830.53
2023-05-15T08:50:15.938Z,100837.09
2023-05-15T08:52:45.387Z,100828.75
2023-05-15T08:55:11.994Z,100819.75
2023-05-15T08:57:39.024Z,100820.66
2023-05-15T09:00:09.575Z,100821.97
2023-05-15T09:02:37.513Z,100807.03
2023-05-15T09:05:05.444Z,100817.63
2023-05-15T09:07:32.237Z,100819.00
2023-05-15T09:09:59.727Z,100822.16
2023-05-15T09:12:26.757Z,100819.38
2023-05-15T09:15:08.784Z,100819.56
2023-05-15T09:17:35.372Z,100827.13
2023-05-15T09:20:06.016Z,100815.19
2023-05-15T09:22:36.479Z,100814.50
2023-05-15T09:25:04.199Z,100814.72
2023-05-15T09:27:47.204Z,100815.50
2023-05-15T09:30:24.255Z,100808.84
2023-05-15T09:32:51.619Z,100812.03
2023-05-15T09:35:37.660Z,100806.41
2023-05-15T09:38:09.076Z,100806.06
2023-05-15T09:40:35.577Z,100800.56
2023-05-15T09:43:02.100Z,100804.97
2023-05-15T09:45:30.353Z,100804.66
2023-05-15T09:48:00.126Z,100800.28
2023-05-15T09:50:37.832Z,100787.78
2023-05-15T09:53:05.231Z,100797.41
2023-05-15T09:55:36.288Z,100789.63
2023-05-15T09:58:13.831Z,100790.84
2023-05-15T10:00:48.306Z,100787.75
2023-05-15T10:03:17.912Z,100798.28
2023-05-15T10:05:44.688Z,100794.75
2023-05-15T10:08:12.338Z,100793.22
2023-05-15T10:10:38.953Z,100783.41
2023-05-15T10:13:07.298Z,100788.50
2023-05-15T10:15:34.222Z,100782.38
2023-05-15T10:18:01.465Z,100776.63
2023-05-15T10:20:28.146Z,100779.28
2023-05-15T10:22:56.282Z,100794.00
2023-05-15T10:25:28.106Z,100784.88
2023-05-15T10:27:55.320Z,100785.19
2023-05-15T10:30:22.291Z,100786.72
2023-05-15T10:32:49.748Z,100771.50
2023-05-15T10:35:17.241Z,100784.06
2023-05-15T10:37:45.896Z,100777.50
2023-05-15T10:40:13.356Z,100773.34
2023-05-15T10:42:42.508Z,100781.03
2023-05-15T10:45:09.766Z,100769.81
2023-05-15T10:47:37.697Z,100771.44
2023-05-15T10:50:05.454Z,100767.84
2023-05-15T10:52:33.511Z,100764.25
2023-05-15T10:55:00.653Z,100762.72
2023-05-15T10:57:30.278Z,100759.38
2023-05-15T10:59:57.000Z,100758.97
2023-05-15T11:02:29.460Z,100752.13
2023-05-15T11:05:00.943Z,100755.94
2023-05-15T11:07:28.314Z,100755.84
2023-05-15T11:09:56.086Z,100749.97
2023-05-15T11:12:23.446Z,100756.22
2023-05-15T11:14:55.905Z,100747.78
2023-05-15T11:17:25.822Z,100753.19
2023-05-15T11:19:52.294Z,100752.53
2023-05-15T11:22:26.853Z,100750.91
2023-05-15T11:25:00.841Z,100737.53
2023-05-15T11:27:29.560Z,100734.22
2023-05-15T11:30:08.137Z,100732.84
2023-05-15T11:32:47.047Z,100736.63
2023-05-15T11:35:14.636Z,100733.19
2023-05-15T11:37:47.293Z,100740.72
2023-05-15T11:40:39.667Z,100729.09
2023-05-15T11:43:08.813Z,100733.34
2023-05-15T11:45:37.930Z,100727.03
2023-05-15T11:48:06.825Z,100723.66
2023-05-15T11:50:34.717Z,100725.06
2023-05-15T11:53:08.583Z,100734.25
2023-05-15T11:55:37.480Z,100718.78
2023-05-15T11:58:08.598Z,100724.53
2023-05-15T12:00:35.111Z,100727.19
2023-05-15T12:03:03.843Z,100720.56
2023-05-15T12:05:31.132Z,100726.16
2023-05-15T12:07:58.087Z,100730.66
2023-05-15T12:10:24.864Z,100731.63
2023-05-15T12:12:51.681Z,100734.94
2023-05-15T12:15:18.198Z,100730.75
2023-05-15T12:17:45.400Z,100737.03
2023-05-15T12:20:17.825Z,100736.47
2023-05-15T12:22:44.878Z,100729.06
2023-05-15T12:25:12.487Z,100730.66
2023-05-15T12:27:39.857Z,100719.50
2023-05-15T12:30:07.541Z,100723.66
2023-05-15T12:32:36.171Z,100729.97
2023-05-15T12:35:03.776Z,100718.97
2023-05-15T12:37:35.583Z,100728.34
2023-05-15T12:40:10.408Z,100726.84
2023-05-15T12:42:44.224Z,100733.13
2023-05-15T12:45:14.336Z,100717.97
2023-05-15T12:47:40.911Z,100718.31
2023-05-15T12:50:22.573Z,100710.59
2023-05-15T12:52:56.784Z,100709.66
2023-05-15T12:55:27.152Z,100707.22
2023-05-15T12:57:57.578Z,100714.00
2023-05-15T13:00:24.567Z,100707.78
2023-05-15T13:02:54.151Z,100698.56
2023-05-15T13:05:23.148Z,100704.56
2023-05-15T13:07:49.917Z,100703.38
2023-05-15T13:10:16.452Z,100704.38
2023-05-15T13:12:45.315Z,100700.63
2023-05-15T13:15:35.535Z,100687.91
2023-05-15T13:18:07.707Z,100689.41
2023-05-15T13:20:38.681Z,100689.66
2023-05-15T13:23:05.594Z,100684.28
2023-05-15T13:25:32.425Z,100677.88
2023-05-15T13:28:00.801Z,100686.13
2023-05-15T13:30:28.387Z,100679.41
2023-05-15T13:32:55.973Z,100675.75
2023-05-15T13:35:22.953Z,100677.81
2023-05-15T13:37:49.907Z,100674.41
2023-05-15T13:40:16.653Z,100672.06
2023-05-15T13:42:44.262Z,100670.28
2023-05-15T13:45:12.451Z,100668.81
2023-05-15T13:47:39.567Z,100662.91
2023-05-15T13:50:11.084Z,100663.03
2023-05-15T13:52:38.179Z,100671.88
2023-05-15T13:55:05.285Z,100669.19
2023-05-15T13:57:32.336Z,100677.13
2023-05-15T13:59:59.202Z,100672.47
2023-05-15T14:02:29.297Z,100674.78
2023-05-15T14:04:55.793Z,100672.50
2023-05-15T14:07:23.200Z,100670.38
2023-05-15T14:09:53.114Z,100668.47
2023-05-15T14:12:19.807Z,100653.91
2023-05-15T14:14:47.007Z,100658.94
2023-05-15T14:17:14.065Z,100668.03
2023-05-15T14:19:41.027Z,100676.63
2023-05-15T14:22:07.516Z,100680.25
2023-05-15T14:24:33.975Z,100676.63
2023-05-15T14:27:00.687Z,100680.53
2023-05-15T14:29:27.233Z,100683.72
2023-05-15T14:31:53.880Z,100682.69
2023-05-15T14:34:22.507Z,100686.72
2023-05-15T14:36:49.729Z,100687.34
2023-05-15T14:39:17.014Z,100695.84
2023-05-15T14:41:44.559Z,100697.06
2023-05-15T14:44:11.095Z,100710.72
2023-05-15T14:46:38.183Z,100705.00
2023-05-15T14:49:05.176Z,100713.84
2023-05-15T14:51:32.267Z,100712.31
2023-05-15T14:53:58.946Z,100723.16
2023-05-15T14:56:25.928Z,100726.25
2023-05-15T14:58:53.716Z,100735.56
2023-05-15T15:01:20.772Z,100723.78
2023-05-15T15:03:47.500Z,100732.16
2023-05-15T15:06:14.099Z,100735.84
2023-05-15T15:08:40.747Z,100732.19
2023-05-15T15:11:07.865Z,100742.16
2023-05-15T15:13:34.478Z,100737.09
2023-05-15T15:16:00.976Z,100733.88
2023-05-15T15:18:27.508Z,100741.25
2023-05-15T15:20:53.969Z,100741.59
2023-05-15T15:23:20.503Z,100730.47
2023-05-15T15:25:47.042Z,100738.88
2023-05-15T15:28:13.534Z,100732.84
2023-05-15T15:30:40.114Z,100733.19
2023-05-15T15:33:06.700Z,100733.59
2023-05-15T15:35:33.274Z,100736.34
2023-05-15T15:37:59.776Z,100735.34
2023-05-15T15:40:26.546Z,100725.78
2023-05-15T15:42:54.269Z,100730.25
2023-05-15T15:45:20.898Z,100731.41
2023-05-15T15:47:47.934Z,100732.94
2023-05-15T15:50:14.515Z,100732.78
2023-05-15T15:52:41.521Z,100733.41
2023-05-15T15:55:08.763Z,100738.13
2023-05-15T15:57:36.531Z,100734.66
2023-05-15T16:00:03.280Z,100733.09
2023-05-15T16:02:29.887Z,100734.19
2023-05-15T16:04:56.403Z,100727.88
2023-05-15T16:07:22.958Z,100721.97
2023-05-15T16:09:53.749Z,100717.63
2023-05-15T16:12:30.419Z,100721.41
2023-05-15T16:15:00.158Z,100718.69
2023-05-15T16:17:30.777Z,100722.63
2023-05-15T16:19:57.231Z,100718.91
2023-05-15T16:22:23.672Z,100713.47
2023-05-15T16:24:50.559Z,100716.75
2023-05-15T16:27:16.998Z,100715.13
2023-05-15T16:29:43.467Z,100715.06
2023-05-15T16:32:10.022Z,100712.19
2023-05-15T16:34:36.638Z,100717.06
2023-05-15T16:37:03.540Z,100709.44
2023-05-15T16:39:32.296Z,100718.25
2023-05-15T16:41:58.879Z,100713.13
2023-05-15T16:44:25.340Z,100713.00
2023-05-15T16:46:51.861Z,100712.41
2023-05-15T16:49:18.470Z,100714.34
2023-05-15T16:51:45.161Z,100712.72
2023-05-15T16:54:11.659Z,100708.25
2023-05-15T16:56:38.259Z,100711.47
2023-05-15T16:59:05.011Z,100713.81
2023-05-15T17:01:31.530Z,100713.31
2023-05-15T17:03:58.098Z,100716.00
2023-05-15T17:06:24.720Z,100727.72
2023-05-15T17:08:51.176Z,100725.25
2023-05-15T17:11:17.780Z,100721.63
2023-05-15T17:13:44.942Z,100722.88
2023-05-15T17:16:11.544Z,100725.72
2023-05-15T17:18:40.826Z,100728.69
2023-05-15T17:21:19.697Z,100732.06
2023-05-15T17:23:53.604Z,100730.31
2023-05-15T17:26:35.612Z,100738.72
2023-05-15T17:29:04.046Z,100736.22
2023-05-15T17:31:31.281Z,100734.56
2023-05-15T17:34:01.806Z,100743.50
2023-05-15T17:36:28.416Z,100744.88
2023-05-15T17:38:57.803Z,100740.13
2023-05-15T17:41:33.053Z,100747.25
2023-05-15T17:44:01.103Z,100752.16
2023-05-15T17:46:32.092Z,100749.53
2023-05-15T17:49:11.295Z,100752.28
2023-05-15T17:51:44.245Z,100756.09
2023-05-15T17:54:15.789Z,100755.69
2023-05-15T17:56:43.229Z,100760.75
2023-05-15T17:59:12.074Z,100771.09
2023-05-15T18:01:44.467Z,100775.81
2023-05-15T18:04:11.590Z,100773.81
2023-05-15T18:06:40.246Z,100782.03
2023-05-15T18:09:08.113Z,100782.88
2023-05-15T18:11:36.602Z,100792.50
2023-05-15T18:14:07.724Z,100791.09
2023-05-15T18:16:34.469Z,100798.88
2023-05-15T18:19:03.085Z,100803.91
2023-05-15T18:21:29.664Z,100802.66
2023-05-15T18:23:56.128Z,100814.13
2023-05-15T18:26:22.621Z,100818.75
2023-05-15T18:28:50.140Z,100818.78
2023-05-15T18:31:16.714Z,100822.44
2023-05-15T18:33:45.271Z,100827.81
2023-05-15T18:36:11.886Z,100831.25
2023-05-15T18:38:38.420Z,100825.94
2023-05-15T18:41:05.115Z,100827.06
2023-05-15T18:43:31.595Z,100833.06
2023-05-15T18:45:58.104Z,100832.38
2023-05-15T18:48:24.693Z,100842.03
2023-05-15T18:50:55.799Z,100842.16
2023-05-15T18:53:22.316Z,100844.69
2023-05-15T18:55:49.127Z,100856.16
2023-05-15T18:58:15.742Z,100855.28
2023-05-15T19:00:42.275Z,100854.41
2023-05-15T19:03:08.982Z,100850.94
2023-05-15T19:05:35.731Z,100858.78
2023-05-15T19:08:02.294Z,100850.88
2023-05-15T19:10:29.751Z,100855.25
2023-05-15T19:12:57.081Z,100852.63
2023-05-15T19:15:23.963Z,100855.22
2023-05-15T19:17:50.751Z,100868.22
2023-05-15T19:20:17.422Z,100874.31
2023-05-15T19:22:43.983Z,100863.91
2023-05-15T19:25:11.023Z,100875.28
2023-05-15T19:27:37.840Z,100875.28
2023-05-15T19:30:07.065Z,100878.59
2023-05-15T19:32:34.248Z,100888.13
2023-05-15T19:35:00.871Z,100887.41
2023-05-15T19:37:27.335Z,100889.72
2023-05-15T19:39:53.855Z,100894.34
2023-05-15T19:42:20.352Z,100897.59
2023-05-15T19:44:46.836Z,100897.59
2023-05-15T19:47:13.281Z,100902.84
2023-05-15T19:49:39.837Z,100909.59
2023-05-15T19:52:06.511Z,100908.69
2023-05-15T19:54:32.988Z,100907.78
2023-05-15T19:57:02.672Z,100904.91
2023-05-15T19:59:29.826Z,100905.75
2023-05-15T20:01:56.413Z,100905.00
2023-05-15T20:04:23.015Z,100916.56
2023-05-15T20:06:49.513Z,100912.19
2023-05-15T20:09:16.030Z,100912.69
2023-05-15T20:11:42.871Z,100916.50
2023-05-15T20:14:09.527Z,100926.81
2023-05-15T20:16:41.298Z,100923.84
2023-05-15T20:19:07.980Z,100924.84
2023-05-15T20:21:34.455Z,100929.03
2023-05-15T20:24:01.140Z,100925.09
2023-05-15T20:26:27.929Z,100934.56
2023-05-15T20:28:54.425Z,100937.00
2023-05-15T20:31:20.980Z,100932.50
2023-05-15T20:33:47.526Z,100929.91
2023-05-15T20:36:15.408Z,100940.25
2023-05-15T20:38:44.884Z,100939.22
2023-05-15T20:41:11.374Z,100944.13
2023-05-15T20:43:39.146Z,100946.97
2023-05-15T20:46:08.749Z,100950.41
2023-05-15T20:48:36.451Z,100962.91
2023-05-15T20:51:03.264Z,100953.22
2023-05-15T20:53:29.882Z,100953.03
2023-05-15T20:55:57.426Z,100957.31
2023-05-15T20:58:23.908Z,100954.63
2023-05-15T21:00:50.604Z,100951.41
2023-05-15T21:03:17.320Z,100946.44
2023-05-15T21:05:46.730Z,100951.50
2023-05-15T21:08:13.770Z,100956.63
2023-05-15T21:10:40.265Z,100959.31
2023-05-15T21:13:07.844Z,100961.28
2023-05-15T21:15:34.633Z,100962.81
2023-05-15T21:18:01.858Z,100966.13
2023-05-15T21:20:28.588Z,100960.50
2023-05-15T21:22:55.252Z,100960.75
2023-05-15T21:25:21.765Z,100960.59
2023-05-15T21:27:48.183Z,100973.41
2023-05-15T21:30:14.937Z,100960.00
2023-05-15T21:32:41.534Z,100963.31
2023-05-15T21:35:08.479Z,100961.91
2023-05-15T21:37:34.914Z,100959.81
2023-05-15T21:40:01.953Z,100965.28
2023-05-15T21:42:30.534Z,100964.91
2023-05-15T21:44:57.158Z,100963.59
2023-05-15T21:47:23.649Z,100965.22
2023-05-15T21:49:50.196Z,100961.22
2023-05-15T21:52:16.635Z,100970.63
2023-05-15T21:54:44.474Z,100980.56
2023-05-15T21:57:11.041Z,100974.22
2023-05-15T21:59:37.555Z,100972.66
2023-05-15T22:02:04.320Z,100969.41
2023-05-15T22:04:30.941Z,100978.53
2023-05-15T22:06:57.529Z,100984.59
2023-05-15T22:09:24.015Z,100988.34
2023-05-15T22:11:50.792Z,100992.81
2023-05-15T22:14:17.368Z,100990.47
2023-05-15T22:16:44.030Z,100978.53
2023-05-15T22:19:21.475Z,100980.47
2023-05-15T22:21:57.094Z,100979.63
2023-05-15T22:24:23.793Z,100990.66
2023-05-15T22:26:50.301Z,100984.09
2023-05-15T22:29:16.769Z,100984.94
2023-05-15T22:31:43.284Z,100986.41
2023-05-15T22:34:09.786Z,100984.50
2023-05-15T22:36:36.728Z,100987.47
2023-05-15T22:39:04.259Z,100987.06
2023-05-15T22:41:32.825Z,100986.91
2023-05-15T22:43:59.350Z,100996.63
2023-05-15T22:46:25.912Z,100990.91
2023-05-15T22:48:53.064Z,100989.00
2023-05-15T22:51:20.447Z,100999.53
2023-05-15T22:53:46.908Z,100994.81
2023-05-15T22:56:13.394Z,100999.88
2023-05-15T22:58:39.860Z,100998.19
2023-05-15T23:01:06.386Z,100998.97
2023-05-15T23:03:33.117Z,100997.59
2023-05-15T23:05:59.572Z,101001.28
2023-05-15T23:08:26.158Z,100995.09
2023-05-15T23:10:53.331Z,101001.75
2023-05-15T23:13:19.807Z,100994.53
2023-05-15T23:15:46.560Z,100999.09
2023-05-15T23:18:14.316Z,101003.47
2023-05-15T23:20:40.988Z,100996.69
2023-05-15T23:23:07.562Z,101002.16
2023-05-15T23:25:34.095Z,100994.59
2023-05-15T23:28:00.587Z,100992.69
2023-05-15T23:30:27.326Z,100997.69
2023-05-15T23:32:55.534Z,100998.28
2023-05-15T23:35:22.312Z,101004.78
2023-05-15T23:37:48.748Z,100995.63
2023-05-15T23:40:16.361Z,100992.34
2023-05-15T23:42:42.859Z,100989.31
2023-05-15T23:45:10.197Z,100984.91
2023-05-15T23:47:36.722Z,100987.78
2023-05-15T23:50:03.691Z,100983.22
2023-05-15T23:52:30.147Z,100981.63
2023-05-15T23:54:56.630Z,100984.84
2023-05-15T23:57:23.070Z,100986.97
2023-05-15T23:59:49.591Z,100988.84
